Pollok, Texas
Current Conditions -  °F | °C
As of 1:15 PM on Sunday 23 Nov 2014 (Local Time) from KOCH Reporting Station
Clear Clear  
Wind Chill: 21°   Ceiling: Unl
Heat Index: 21°   Visibility: 10mi
Dew Point: 14°   Wind: 14mph
Humidity: 64%   Direction: 220°SW
Pressure: 29.49"   Gusts: 21mph
Location:  31.45°N, 94.87°W
Report Text: KOCH 231915Z AUTO 22012G18KT 10SM CLR 21/14 A2949 RMK AO1
Loading
Personal Weather Stations






























Interactive Weather Map New forecast layout! Learn more

10-Day Weather Forecast

Advertisements
Track Severe Weather on mobile